sensor_id;sensor_type;location;lat;lon;timestamp;P1;durP1;ratioP1;P2;durP2;ratioP2
4698;SDS011;33708;49.466;11.176;2023-10-08T00:00:46;9.40;;;5.40;;
4698;SDS011;33708;49.466;11.176;2023-10-08T00:03:18;8.77;;;5.60;;
4698;SDS011;33708;49.466;11.176;2023-10-08T00:05:48;10.37;;;5.37;;
4698;SDS011;33708;49.466;11.176;2023-10-08T00:08:16;14.13;;;5.90;;
4698;SDS011;33708;49.466;11.176;2023-10-08T00:10:42;11.40;;;6.13;;
4698;SDS011;33708;49.466;11.176;2023-10-08T00:13:12;16.97;;;6.53;;
4698;SDS011;33708;49.466;11.176;2023-10-08T00:15:40;13.30;;;6.90;;
4698;SDS011;33708;49.466;11.176;2023-10-08T00:18:15;16.03;;;7.97;;
4698;SDS011;33708;49.466;11.176;2023-10-08T00:20:40;11.90;;;6.80;;
4698;SDS011;33708;49.466;11.176;2023-10-08T00:23:19;13.50;;;7.30;;
4698;SDS011;33708;49.466;11.176;2023-10-08T00:25:46;16.70;;;7.10;;
4698;SDS011;33708;49.466;11.176;2023-10-08T00:28:12;12.97;;;6.70;;
4698;SDS011;33708;49.466;11.176;2023-10-08T00:30:42;17.23;;;7.07;;
4698;SDS011;33708;49.466;11.176;2023-10-08T00:33:08;14.13;;;6.53;;
4698;SDS011;33708;49.466;11.176;2023-10-08T00:35:38;11.23;;;6.03;;
4698;SDS011;33708;49.466;11.176;2023-10-08T00:38:05;14.50;;;6.10;;
4698;SDS011;33708;49.466;11.176;2023-10-08T00:40:39;14.80;;;6.33;;
4698;SDS011;33708;49.466;11.176;2023-10-08T00:43:05;8.37;;;5.40;;
4698;SDS011;33708;49.466;11.176;2023-10-08T00:45:38;16.20;;;6.00;;
4698;SDS011;33708;49.466;11.176;2023-10-08T00:48:09;13.07;;;6.60;;
4698;SDS011;33708;49.466;11.176;2023-10-08T00:50:41;12.63;;;5.87;;
4698;SDS011;33708;49.466;11.176;2023-10-08T00:53:08;10.17;;;5.53;;
4698;SDS011;33708;49.466;11.176;2023-10-08T00:55:48;13.83;;;6.87;;
4698;SDS011;33708;49.466;11.176;2023-10-08T00:58:19;10.20;;;5.73;;
4698;SDS011;33708;49.466;11.176;2023-10-08T01:00:52;15.10;;;6.47;;
4698;SDS011;33708;49.466;11.176;2023-10-08T01:03:24;12.93;;;5.30;;
4698;SDS011;33708;49.466;11.176;2023-10-08T01:05:52;11.23;;;5.80;;
4698;SDS011;33708;49.466;11.176;2023-10-08T01:08:19;10.93;;;5.77;;
4698;SDS011;33708;49.466;11.176;2023-10-08T01:14:16;18.07;;;5.20;;
4698;SDS011;33708;49.466;11.176;2023-10-08T01:16:46;11.33;;;5.40;;
4698;SDS011;33708;49.466;11.176;2023-10-08T01:19:17;11.50;;;5.30;;
4698;SDS011;33708;49.466;11.176;2023-10-08T01:21:44;11.33;;;5.63;;
4698;SDS011;33708;49.466;11.176;2023-10-08T01:24:10;10.93;;;5.30;;
4698;SDS011;33708;49.466;11.176;2023-10-08T01:26:41;10.50;;;4.80;;
4698;SDS011;33708;49.466;11.176;2023-10-08T01:29:10;15.03;;;5.70;;
4698;SDS011;33708;49.466;11.176;2023-10-08T01:31:44;17.90;;;5.30;;
4698;SDS011;33708;49.466;11.176;2023-10-08T01:34:18;14.23;;;5.53;;
4698;SDS011;33708;49.466;11.176;2023-10-08T01:36:44;11.30;;;4.97;;
4698;SDS011;33708;49.466;11.176;2023-10-08T01:39:10;14.50;;;5.70;;
4698;SDS011;33708;49.466;11.176;2023-10-08T01:41:44;9.07;;;4.83;;
4698;SDS011;33708;49.466;11.176;2023-10-08T01:44:12;10.67;;;5.30;;
4698;SDS011;33708;49.466;11.176;2023-10-08T01:46:37;10.37;;;4.87;;
4698;SDS011;33708;49.466;11.176;2023-10-08T01:49:05;8.07;;;4.77;;
4698;SDS011;33708;49.466;11.176;2023-10-08T01:51:38;9.67;;;5.10;;
4698;SDS011;33708;49.466;11.176;2023-10-08T01:54:09;14.77;;;5.00;;
4698;SDS011;33708;49.466;11.176;2023-10-08T01:56:42;9.77;;;4.77;;
4698;SDS011;33708;49.466;11.176;2023-10-08T01:59:11;14.10;;;4.67;;
4698;SDS011;33708;49.466;11.176;2023-10-08T02:01:39;18.70;;;4.93;;
4698;SDS011;33708;49.466;11.176;2023-10-08T02:04:06;10.37;;;4.70;;
4698;SDS011;33708;49.466;11.176;2023-10-08T02:06:37;11.00;;;4.57;;
4698;SDS011;33708;49.466;11.176;2023-10-08T02:09:04;7.80;;;4.70;;
4698;SDS011;33708;49.466;11.176;2023-10-08T02:11:46;16.83;;;4.50;;
4698;SDS011;33708;49.466;11.176;2023-10-08T02:14:19;10.33;;;4.53;;
4698;SDS011;33708;49.466;11.176;2023-10-08T02:16:49;8.97;;;5.00;;
4698;SDS011;33708;49.466;11.176;2023-10-08T02:19:17;17.50;;;5.07;;
4698;SDS011;33708;49.466;11.176;2023-10-08T02:21:51;9.37;;;4.57;;
4698;SDS011;33708;49.466;11.176;2023-10-08T02:24:21;11.83;;;4.70;;
4698;SDS011;33708;49.466;11.176;2023-10-08T02:26:49;12.10;;;4.63;;
4698;SDS011;33708;49.466;11.176;2023-10-08T02:29:19;11.23;;;4.80;;
4698;SDS011;33708;49.466;11.176;2023-10-08T02:31:47;11.10;;;4.50;;
4698;SDS011;33708;49.466;11.176;2023-10-08T02:34:12;8.87;;;4.43;;
4698;SDS011;33708;49.466;11.176;2023-10-08T02:36:39;10.40;;;4.77;;
4698;SDS011;33708;49.466;11.176;2023-10-08T02:39:08;11.70;;;5.13;;
4698;SDS011;33708;49.466;11.176;2023-10-08T02:41:46;11.70;;;5.40;;
4698;SDS011;33708;49.466;11.176;2023-10-08T02:44:13;11.00;;;4.40;;
4698;SDS011;33708;49.466;11.176;2023-10-08T02:46:43;9.90;;;4.87;;
4698;SDS011;33708;49.466;11.176;2023-10-08T02:49:15;10.70;;;4.63;;
4698;SDS011;33708;49.466;11.176;2023-10-08T02:51:49;9.97;;;4.60;;
4698;SDS011;33708;49.466;11.176;2023-10-08T02:54:19;7.83;;;4.70;;
4698;SDS011;33708;49.466;11.176;2023-10-08T02:56:51;7.60;;;4.03;;
4698;SDS011;33708;49.466;11.176;2023-10-08T02:59:22;10.33;;;4.97;;
4698;SDS011;33708;49.466;11.176;2023-10-08T03:01:48;14.13;;;4.43;;
4698;SDS011;33708;49.466;11.176;2023-10-08T03:04:14;8.43;;;4.30;;
4698;SDS011;33708;49.466;11.176;2023-10-08T03:06:46;9.40;;;3.90;;
4698;SDS011;33708;49.466;11.176;2023-10-08T03:09:19;6.47;;;3.90;;
4698;SDS011;33708;49.466;11.176;2023-10-08T03:11:51;9.93;;;4.00;;
4698;SDS011;33708;49.466;11.176;2023-10-08T03:14:18;9.83;;;3.87;;
4698;SDS011;33708;49.466;11.176;2023-10-08T03:16:53;9.60;;;5.03;;
4698;SDS011;33708;49.466;11.176;2023-10-08T03:19:28;7.97;;;4.13;;
4698;SDS011;33708;49.466;11.176;2023-10-08T03:21:55;10.83;;;4.30;;
4698;SDS011;33708;49.466;11.176;2023-10-08T03:24:21;9.30;;;4.13;;
4698;SDS011;33708;49.466;11.176;2023-10-08T03:26:59;15.40;;;4.50;;
4698;SDS011;33708;49.466;11.176;2023-10-08T03:29:33;8.67;;;4.80;;
4698;SDS011;33708;49.466;11.176;2023-10-08T03:32:05;11.80;;;4.70;;
4698;SDS011;33708;49.466;11.176;2023-10-08T03:34:31;10.33;;;4.97;;
4698;SDS011;33708;49.466;11.176;2023-10-08T03:36:59;9.70;;;4.57;;
4698;SDS011;33708;49.466;11.176;2023-10-08T03:39:30;8.83;;;4.97;;
4698;SDS011;33708;49.466;11.176;2023-10-08T03:42:18;8.67;;;4.60;;
4698;SDS011;33708;49.466;11.176;2023-10-08T03:44:50;10.50;;;4.60;;
4698;SDS011;33708;49.466;11.176;2023-10-08T03:47:21;6.33;;;4.07;;
4698;SDS011;33708;49.466;11.176;2023-10-08T03:49:51;11.03;;;4.50;;
4698;SDS011;33708;49.466;11.176;2023-10-08T03:52:19;21.07;;;4.10;;
4698;SDS011;33708;49.466;11.176;2023-10-08T03:54:48;11.90;;;4.70;;
4698;SDS011;33708;49.466;11.176;2023-10-08T03:57:20;8.93;;;4.73;;
4698;SDS011;33708;49.466;11.176;2023-10-08T03:59:50;8.80;;;4.50;;
4698;SDS011;33708;49.466;11.176;2023-10-08T04:02:20;10.60;;;4.83;;
4698;SDS011;33708;49.466;11.176;2023-10-08T04:04:56;10.37;;;5.03;;
4698;SDS011;33708;49.466;11.176;2023-10-08T04:07:23;8.10;;;4.70;;
4698;SDS011;33708;49.466;11.176;2023-10-08T04:09:59;9.50;;;5.10;;
4698;SDS011;33708;49.466;11.176;2023-10-08T04:12:33;9.77;;;4.43;;
4698;SDS011;33708;49.466;11.176;2023-10-08T04:15:02;14.03;;;4.30;;
4698;SDS011;33708;49.466;11.176;2023-10-08T04:17:32;10.00;;;4.23;;
4698;SDS011;33708;49.466;11.176;2023-10-08T04:20:13;16.23;;;5.43;;
4698;SDS011;33708;49.466;11.176;2023-10-08T04:22:58;10.17;;;5.00;;
4698;SDS011;33708;49.466;11.176;2023-10-08T04:25:28;13.77;;;5.40;;
4698;SDS011;33708;49.466;11.176;2023-10-08T04:27:55;12.90;;;6.30;;
4698;SDS011;33708;49.466;11.176;2023-10-08T04:30:34;9.97;;;4.90;;
4698;SDS011;33708;49.466;11.176;2023-10-08T04:33:00;11.43;;;5.27;;
4698;SDS011;33708;49.466;11.176;2023-10-08T04:35:33;11.07;;;5.37;;
4698;SDS011;33708;49.466;11.176;2023-10-08T04:38:02;17.43;;;6.07;;
4698;SDS011;33708;49.466;11.176;2023-10-08T04:40:29;12.00;;;5.50;;
4698;SDS011;33708;49.466;11.176;2023-10-08T04:42:59;9.13;;;4.20;;
4698;SDS011;33708;49.466;11.176;2023-10-08T04:45:27;14.23;;;6.23;;
4698;SDS011;33708;49.466;11.176;2023-10-08T04:47:59;10.40;;;5.90;;
4698;SDS011;33708;49.466;11.176;2023-10-08T04:50:24;14.77;;;7.00;;
4698;SDS011;33708;49.466;11.176;2023-10-08T04:52:55;15.67;;;5.90;;
4698;SDS011;33708;49.466;11.176;2023-10-08T04:55:24;11.47;;;5.87;;
4698;SDS011;33708;49.466;11.176;2023-10-08T04:57:57;10.53;;;5.87;;
4698;SDS011;33708;49.466;11.176;2023-10-08T05:00:23;10.13;;;5.60;;
4698;SDS011;33708;49.466;11.176;2023-10-08T05:03:19;9.60;;;5.00;;
4698;SDS011;33708;49.466;11.176;2023-10-08T05:05:47;9.87;;;5.37;;
4698;SDS011;33708;49.466;11.176;2023-10-08T05:08:36;14.37;;;6.20;;
4698;SDS011;33708;49.466;11.176;2023-10-08T05:11:23;9.90;;;5.73;;
4698;SDS011;33708;49.466;11.176;2023-10-08T05:14:07;12.10;;;6.63;;
4698;SDS011;33708;49.466;11.176;2023-10-08T05:16:41;15.43;;;7.50;;
4698;SDS011;33708;49.466;11.176;2023-10-08T05:19:25;10.17;;;6.30;;
4698;SDS011;33708;49.466;11.176;2023-10-08T05:22:09;12.40;;;6.23;;
4698;SDS011;33708;49.466;11.176;2023-10-08T05:24:55;14.43;;;5.90;;
4698;SDS011;33708;49.466;11.176;2023-10-08T05:27:51;12.10;;;6.10;;
4698;SDS011;33708;49.466;11.176;2023-10-08T05:30:19;16.80;;;6.47;;
4698;SDS011;33708;49.466;11.176;2023-10-08T05:33:05;12.07;;;5.40;;
4698;SDS011;33708;49.466;11.176;2023-10-08T05:35:37;11.00;;;5.40;;
4698;SDS011;33708;49.466;11.176;2023-10-08T05:38:07;10.73;;;5.10;;
4698;SDS011;33708;49.466;11.176;2023-10-08T05:40:44;10.67;;;5.00;;
4698;SDS011;33708;49.466;11.176;2023-10-08T05:43:39;14.40;;;4.43;;
4698;SDS011;33708;49.466;11.176;2023-10-08T05:46:05;12.67;;;5.13;;
4698;SDS011;33708;49.466;11.176;2023-10-08T05:49:04;11.13;;;4.87;;
4698;SDS011;33708;49.466;11.176;2023-10-08T05:51:33;13.77;;;4.90;;
4698;SDS011;33708;49.466;11.176;2023-10-08T05:54:12;10.93;;;4.10;;
4698;SDS011;33708;49.466;11.176;2023-10-08T06:02:25;10.87;;;4.23;;
4698;SDS011;33708;49.466;11.176;2023-10-08T06:05:03;12.30;;;4.60;;
4698;SDS011;33708;49.466;11.176;2023-10-08T06:10:26;15.63;;;4.43;;
4698;SDS011;33708;49.466;11.176;2023-10-08T06:12:55;10.50;;;3.97;;
4698;SDS011;33708;49.466;11.176;2023-10-08T06:15:47;16.97;;;4.80;;
4698;SDS011;33708;49.466;11.176;2023-10-08T06:18:19;14.77;;;4.73;;
4698;SDS011;33708;49.466;11.176;2023-10-08T06:20:51;12.50;;;4.90;;
4698;SDS011;33708;49.466;11.176;2023-10-08T06:23:20;20.53;;;4.50;;
4698;SDS011;33708;49.466;11.176;2023-10-08T06:25:48;10.77;;;4.63;;
4698;SDS011;33708;49.466;11.176;2023-10-08T06:28:30;14.70;;;4.13;;
4698;SDS011;33708;49.466;11.176;2023-10-08T06:31:00;10.77;;;4.73;;
4698;SDS011;33708;49.466;11.176;2023-10-08T06:33:27;11.33;;;5.13;;
4698;SDS011;33708;49.466;11.176;2023-10-08T06:35:58;12.93;;;4.20;;
4698;SDS011;33708;49.466;11.176;2023-10-08T06:38:33;15.20;;;5.13;;
4698;SDS011;33708;49.466;11.176;2023-10-08T06:41:00;13.27;;;5.07;;
4698;SDS011;33708;49.466;11.176;2023-10-08T06:43:34;11.80;;;4.67;;
4698;SDS011;33708;49.466;11.176;2023-10-08T06:46:01;16.83;;;5.40;;
4698;SDS011;33708;49.466;11.176;2023-10-08T06:48:28;8.97;;;4.77;;
4698;SDS011;33708;49.466;11.176;2023-10-08T06:50:54;12.73;;;5.20;;
4698;SDS011;33708;49.466;11.176;2023-10-08T06:53:22;11.93;;;4.50;;
4698;SDS011;33708;49.466;11.176;2023-10-08T06:55:48;12.83;;;5.20;;
4698;SDS011;33708;49.466;11.176;2023-10-08T06:58:21;9.43;;;4.87;;
4698;SDS011;33708;49.466;11.176;2023-10-08T07:00:50;11.20;;;4.83;;
4698;SDS011;33708;49.466;11.176;2023-10-08T07:03:17;12.30;;;5.17;;
4698;SDS011;33708;49.466;11.176;2023-10-08T07:05:44;16.23;;;4.87;;
4698;SDS011;33708;49.466;11.176;2023-10-08T07:08:20;11.20;;;4.10;;
4698;SDS011;33708;49.466;11.176;2023-10-08T07:10:48;9.27;;;4.00;;
4698;SDS011;33708;49.466;11.176;2023-10-08T07:13:15;8.43;;;4.10;;
4698;SDS011;33708;49.466;11.176;2023-10-08T07:15:43;10.53;;;4.30;;
4698;SDS011;33708;49.466;11.176;2023-10-08T07:18:10;9.40;;;4.50;;
4698;SDS011;33708;49.466;11.176;2023-10-08T07:20:38;9.87;;;4.67;;
4698;SDS011;33708;49.466;11.176;2023-10-08T07:23:06;9.93;;;4.93;;
4698;SDS011;33708;49.466;11.176;2023-10-08T07:25:34;13.53;;;4.57;;
4698;SDS011;33708;49.466;11.176;2023-10-08T07:28:03;9.20;;;4.07;;
4698;SDS011;33708;49.466;11.176;2023-10-08T07:30:30;10.63;;;4.60;;
4698;SDS011;33708;49.466;11.176;2023-10-08T07:33:03;10.63;;;4.40;;
4698;SDS011;33708;49.466;11.176;2023-10-08T07:35:29;12.00;;;4.47;;
4698;SDS011;33708;49.466;11.176;2023-10-08T07:37:55;16.67;;;5.63;;
4698;SDS011;33708;49.466;11.176;2023-10-08T07:40:21;8.40;;;4.53;;
4698;SDS011;33708;49.466;11.176;2023-10-08T07:42:46;8.87;;;4.73;;
4698;SDS011;33708;49.466;11.176;2023-10-08T07:45:17;13.20;;;5.07;;
4698;SDS011;33708;49.466;11.176;2023-10-08T07:47:43;12.10;;;4.70;;
4698;SDS011;33708;49.466;11.176;2023-10-08T07:50:09;8.23;;;4.90;;
4698;SDS011;33708;49.466;11.176;2023-10-08T07:52:38;9.70;;;4.77;;
4698;SDS011;33708;49.466;11.176;2023-10-08T07:55:03;11.37;;;4.83;;
4698;SDS011;33708;49.466;11.176;2023-10-08T07:57:29;16.70;;;4.93;;
4698;SDS011;33708;49.466;11.176;2023-10-08T07:59:56;11.50;;;5.00;;
4698;SDS011;33708;49.466;11.176;2023-10-08T08:02:41;9.13;;;4.20;;
4698;SDS011;33708;49.466;11.176;2023-10-08T08:05:07;17.17;;;5.03;;
4698;SDS011;33708;49.466;11.176;2023-10-08T08:07:33;16.37;;;5.57;;
4698;SDS011;33708;49.466;11.176;2023-10-08T08:09:58;14.13;;;5.53;;
4698;SDS011;33708;49.466;11.176;2023-10-08T08:12:24;11.73;;;5.93;;
4698;SDS011;33708;49.466;11.176;2023-10-08T08:14:51;12.87;;;5.73;;
4698;SDS011;33708;49.466;11.176;2023-10-08T08:17:17;9.23;;;5.00;;
4698;SDS011;33708;49.466;11.176;2023-10-08T08:19:43;12.47;;;4.37;;
4698;SDS011;33708;49.466;11.176;2023-10-08T08:22:12;13.33;;;5.10;;
4698;SDS011;33708;49.466;11.176;2023-10-08T08:24:45;9.60;;;4.70;;
4698;SDS011;33708;49.466;11.176;2023-10-08T08:27:18;13.27;;;5.03;;
4698;SDS011;33708;49.466;11.176;2023-10-08T08:29:50;9.60;;;4.37;;
4698;SDS011;33708;49.466;11.176;2023-10-08T08:32:20;13.33;;;3.90;;
4698;SDS011;33708;49.466;11.176;2023-10-08T08:34:48;11.63;;;4.97;;
4698;SDS011;33708;49.466;11.176;2023-10-08T08:37:18;10.93;;;5.27;;
4698;SDS011;33708;49.466;11.176;2023-10-08T08:39:47;9.83;;;5.23;;
4698;SDS011;33708;49.466;11.176;2023-10-08T08:42:13;12.50;;;5.27;;
4698;SDS011;33708;49.466;11.176;2023-10-08T08:44:43;10.83;;;4.97;;
4698;SDS011;33708;49.466;11.176;2023-10-08T08:47:14;12.07;;;5.00;;
4698;SDS011;33708;49.466;11.176;2023-10-08T08:49:43;12.77;;;4.83;;
4698;SDS011;33708;49.466;11.176;2023-10-08T08:52:10;16.63;;;5.43;;
4698;SDS011;33708;49.466;11.176;2023-10-08T08:54:36;13.10;;;5.27;;
4698;SDS011;33708;49.466;11.176;2023-10-08T08:57:03;18.43;;;5.73;;
4698;SDS011;33708;49.466;11.176;2023-10-08T08:59:29;12.60;;;4.33;;
4698;SDS011;33708;49.466;11.176;2023-10-08T09:01:58;14.33;;;4.37;;
4698;SDS011;33708;49.466;11.176;2023-10-08T09:04:27;11.77;;;5.70;;
4698;SDS011;33708;49.466;11.176;2023-10-08T09:06:57;17.90;;;5.30;;
4698;SDS011;33708;49.466;11.176;2023-10-08T09:09:30;10.73;;;4.87;;
4698;SDS011;33708;49.466;11.176;2023-10-08T09:11:57;12.57;;;5.10;;
4698;SDS011;33708;49.466;11.176;2023-10-08T09:14:24;10.77;;;4.77;;
4698;SDS011;33708;49.466;11.176;2023-10-08T09:16:51;11.60;;;4.83;;
4698;SDS011;33708;49.466;11.176;2023-10-08T09:19:19;13.90;;;5.17;;
4698;SDS011;33708;49.466;11.176;2023-10-08T09:22:07;11.67;;;4.83;;
4698;SDS011;33708;49.466;11.176;2023-10-08T09:24:36;17.13;;;4.47;;
4698;SDS011;33708;49.466;11.176;2023-10-08T09:27:04;10.63;;;4.23;;
4698;SDS011;33708;49.466;11.176;2023-10-08T09:29:30;16.10;;;4.90;;
4698;SDS011;33708;49.466;11.176;2023-10-08T09:31:57;12.70;;;4.90;;
4698;SDS011;33708;49.466;11.176;2023-10-08T09:34:27;14.40;;;5.40;;
4698;SDS011;33708;49.466;11.176;2023-10-08T09:36:55;11.83;;;5.17;;
4698;SDS011;33708;49.466;11.176;2023-10-08T09:39:21;11.30;;;5.43;;
4698;SDS011;33708;49.466;11.176;2023-10-08T09:41:54;16.17;;;4.50;;
4698;SDS011;33708;49.466;11.176;2023-10-08T09:44:22;17.50;;;5.60;;
4698;SDS011;33708;49.466;11.176;2023-10-08T09:47:09;13.60;;;4.90;;
4698;SDS011;33708;49.466;11.176;2023-10-08T09:49:40;16.80;;;5.20;;
4698;SDS011;33708;49.466;11.176;2023-10-08T09:52:13;18.73;;;5.43;;
4698;SDS011;33708;49.466;11.176;2023-10-08T09:54:49;16.27;;;4.83;;
4698;SDS011;33708;49.466;11.176;2023-10-08T09:57:35;11.23;;;4.77;;
4698;SDS011;33708;49.466;11.176;2023-10-08T10:00:03;11.87;;;4.47;;
4698;SDS011;33708;49.466;11.176;2023-10-08T10:02:35;10.40;;;4.10;;
4698;SDS011;33708;49.466;11.176;2023-10-08T10:05:02;15.50;;;4.60;;
4698;SDS011;33708;49.466;11.176;2023-10-08T10:07:28;12.00;;;4.83;;
4698;SDS011;33708;49.466;11.176;2023-10-08T10:09:55;12.57;;;4.67;;
4698;SDS011;33708;49.466;11.176;2023-10-08T10:12:21;15.10;;;4.70;;
4698;SDS011;33708;49.466;11.176;2023-10-08T10:14:54;13.03;;;5.10;;
4698;SDS011;33708;49.466;11.176;2023-10-08T10:17:22;14.70;;;4.80;;
4698;SDS011;33708;49.466;11.176;2023-10-08T10:19:56;12.00;;;5.10;;
4698;SDS011;33708;49.466;11.176;2023-10-08T10:22:29;13.77;;;5.40;;
4698;SDS011;33708;49.466;11.176;2023-10-08T10:24:58;12.77;;;5.40;;
4698;SDS011;33708;49.466;11.176;2023-10-08T10:27:29;10.87;;;4.63;;
4698;SDS011;33708;49.466;11.176;2023-10-08T10:30:02;9.67;;;4.63;;
4698;SDS011;33708;49.466;11.176;2023-10-08T10:32:33;13.03;;;5.50;;
4698;SDS011;33708;49.466;11.176;2023-10-08T10:34:59;16.83;;;5.37;;
4698;SDS011;33708;49.466;11.176;2023-10-08T10:37:28;15.37;;;5.30;;
4698;SDS011;33708;49.466;11.176;2023-10-08T10:40:06;27.23;;;5.50;;
4698;SDS011;33708;49.466;11.176;2023-10-08T10:42:35;12.70;;;5.90;;
4698;SDS011;33708;49.466;11.176;2023-10-08T10:45:11;9.27;;;5.03;;
4698;SDS011;33708;49.466;11.176;2023-10-08T10:48:03;11.03;;;5.37;;
4698;SDS011;33708;49.466;11.176;2023-10-08T10:50:45;11.70;;;5.47;;
4698;SDS011;33708;49.466;11.176;2023-10-08T10:53:31;16.93;;;5.60;;
4698;SDS011;33708;49.466;11.176;2023-10-08T10:56:24;19.40;;;5.83;;
4698;SDS011;33708;49.466;11.176;2023-10-08T10:58:59;14.87;;;5.70;;
4698;SDS011;33708;49.466;11.176;2023-10-08T11:01:30;16.03;;;5.97;;
4698;SDS011;33708;49.466;11.176;2023-10-08T11:04:09;15.40;;;6.23;;
4698;SDS011;33708;49.466;11.176;2023-10-08T11:06:40;18.27;;;6.07;;
4698;SDS011;33708;49.466;11.176;2023-10-08T11:09:09;14.97;;;5.67;;
4698;SDS011;33708;49.466;11.176;2023-10-08T11:11:40;14.03;;;5.73;;
4698;SDS011;33708;49.466;11.176;2023-10-08T11:14:11;17.40;;;6.33;;
4698;SDS011;33708;49.466;11.176;2023-10-08T11:16:43;12.47;;;5.10;;
4698;SDS011;33708;49.466;11.176;2023-10-08T11:19:13;14.50;;;5.20;;
4698;SDS011;33708;49.466;11.176;2023-10-08T11:21:50;14.07;;;5.00;;
4698;SDS011;33708;49.466;11.176;2023-10-08T11:24:31;10.80;;;5.40;;
4698;SDS011;33708;49.466;11.176;2023-10-08T11:27:02;14.97;;;5.83;;
4698;SDS011;33708;49.466;11.176;2023-10-08T11:29:50;20.70;;;5.63;;
4698;SDS011;33708;49.466;11.176;2023-10-08T11:32:22;9.30;;;5.10;;
4698;SDS011;33708;49.466;11.176;2023-10-08T11:34:54;12.97;;;5.60;;
4698;SDS011;33708;49.466;11.176;2023-10-08T11:37:44;11.10;;;5.40;;
4698;SDS011;33708;49.466;11.176;2023-10-08T11:40:21;9.73;;;5.40;;
4698;SDS011;33708;49.466;11.176;2023-10-08T11:42:53;18.50;;;6.13;;
4698;SDS011;33708;49.466;11.176;2023-10-08T11:45:22;13.53;;;5.20;;
4698;SDS011;33708;49.466;11.176;2023-10-08T11:47:52;12.37;;;5.20;;
4698;SDS011;33708;49.466;11.176;2023-10-08T11:50:25;17.03;;;5.30;;
4698;SDS011;33708;49.466;11.176;2023-10-08T11:53:01;12.57;;;5.70;;
4698;SDS011;33708;49.466;11.176;2023-10-08T11:55:31;17.97;;;5.70;;
4698;SDS011;33708;49.466;11.176;2023-10-08T11:58:02;11.57;;;5.20;;
4698;SDS011;33708;49.466;11.176;2023-10-08T12:00:42;13.20;;;6.53;;
4698;SDS011;33708;49.466;11.176;2023-10-08T12:03:09;12.70;;;5.30;;
4698;SDS011;33708;49.466;11.176;2023-10-08T12:05:36;16.37;;;6.10;;
4698;SDS011;33708;49.466;11.176;2023-10-08T12:08:08;13.43;;;5.27;;
4698;SDS011;33708;49.466;11.176;2023-10-08T12:10:34;16.73;;;5.50;;
4698;SDS011;33708;49.466;11.176;2023-10-08T12:12:59;16.33;;;6.67;;
4698;SDS011;33708;49.466;11.176;2023-10-08T12:15:25;9.47;;;5.00;;
4698;SDS011;33708;49.466;11.176;2023-10-08T12:18:03;10.93;;;5.23;;
4698;SDS011;33708;49.466;11.176;2023-10-08T12:20:48;16.00;;;5.43;;
4698;SDS011;33708;49.466;11.176;2023-10-08T12:23:14;17.83;;;5.57;;
4698;SDS011;33708;49.466;11.176;2023-10-08T12:25:50;14.50;;;4.83;;
4698;SDS011;33708;49.466;11.176;2023-10-08T12:28:21;13.60;;;6.30;;
4698;SDS011;33708;49.466;11.176;2023-10-08T12:30:48;11.30;;;5.57;;
4698;SDS011;33708;49.466;11.176;2023-10-08T12:33:17;13.33;;;5.27;;
4698;SDS011;33708;49.466;11.176;2023-10-08T12:35:44;13.00;;;8.20;;
4698;SDS011;33708;49.466;11.176;2023-10-08T12:38:13;11.63;;;5.40;;
4698;SDS011;33708;49.466;11.176;2023-10-08T12:40:42;10.57;;;4.80;;
4698;SDS011;33708;49.466;11.176;2023-10-08T12:43:15;19.53;;;5.47;;
4698;SDS011;33708;49.466;11.176;2023-10-08T12:45:50;12.03;;;4.90;;
4698;SDS011;33708;49.466;11.176;2023-10-08T12:48:23;12.73;;;5.10;;
4698;SDS011;33708;49.466;11.176;2023-10-08T12:50:51;13.07;;;5.40;;
4698;SDS011;33708;49.466;11.176;2023-10-08T12:53:23;18.87;;;5.37;;
4698;SDS011;33708;49.466;11.176;2023-10-08T12:56:05;17.00;;;5.10;;
4698;SDS011;33708;49.466;11.176;2023-10-08T12:58:33;13.47;;;5.17;;
4698;SDS011;33708;49.466;11.176;2023-10-08T13:01:06;13.83;;;6.23;;
4698;SDS011;33708;49.466;11.176;2023-10-08T13:03:34;17.93;;;6.40;;
4698;SDS011;33708;49.466;11.176;2023-10-08T13:06:09;13.97;;;5.13;;
4698;SDS011;33708;49.466;11.176;2023-10-08T13:08:40;14.33;;;6.50;;
4698;SDS011;33708;49.466;11.176;2023-10-08T13:11:06;14.83;;;5.90;;
4698;SDS011;33708;49.466;11.176;2023-10-08T13:13:32;21.73;;;6.13;;
4698;SDS011;33708;49.466;11.176;2023-10-08T13:15:58;19.47;;;5.07;;
4698;SDS011;33708;49.466;11.176;2023-10-08T13:18:28;15.20;;;6.60;;
4698;SDS011;33708;49.466;11.176;2023-10-08T13:20:54;12.67;;;5.20;;
4698;SDS011;33708;49.466;11.176;2023-10-08T13:23:20;19.33;;;6.27;;
4698;SDS011;33708;49.466;11.176;2023-10-08T13:25:48;15.40;;;5.30;;
4698;SDS011;33708;49.466;11.176;2023-10-08T13:28:22;18.30;;;5.63;;
4698;SDS011;33708;49.466;11.176;2023-10-08T13:30:51;13.00;;;5.10;;
4698;SDS011;33708;49.466;11.176;2023-10-08T13:33:18;15.97;;;5.90;;
4698;SDS011;33708;49.466;11.176;2023-10-08T13:35:50;19.47;;;5.93;;
4698;SDS011;33708;49.466;11.176;2023-10-08T13:38:19;11.70;;;5.93;;
4698;SDS011;33708;49.466;11.176;2023-10-08T13:40:54;16.40;;;5.80;;
4698;SDS011;33708;49.466;11.176;2023-10-08T13:43:31;11.47;;;5.70;;
4698;SDS011;33708;49.466;11.176;2023-10-08T13:46:01;20.23;;;6.20;;
4698;SDS011;33708;49.466;11.176;2023-10-08T13:48:34;13.80;;;5.63;;
4698;SDS011;33708;49.466;11.176;2023-10-08T13:51:01;13.73;;;6.03;;
4698;SDS011;33708;49.466;11.176;2023-10-08T13:53:33;18.60;;;4.80;;
4698;SDS011;33708;49.466;11.176;2023-10-08T13:56:01;14.07;;;6.00;;
4698;SDS011;33708;49.466;11.176;2023-10-08T13:58:29;14.90;;;6.30;;
4698;SDS011;33708;49.466;11.176;2023-10-08T14:01:05;13.10;;;5.77;;
4698;SDS011;33708;49.466;11.176;2023-10-08T14:03:44;12.07;;;5.57;;
4698;SDS011;33708;49.466;11.176;2023-10-08T14:06:13;15.53;;;5.20;;
4698;SDS011;33708;49.466;11.176;2023-10-08T14:08:41;21.43;;;5.87;;
4698;SDS011;33708;49.466;11.176;2023-10-08T14:11:09;12.90;;;5.30;;
4698;SDS011;33708;49.466;11.176;2023-10-08T14:13:37;14.40;;;5.77;;
4698;SDS011;33708;49.466;11.176;2023-10-08T14:16:07;15.17;;;6.00;;
4698;SDS011;33708;49.466;11.176;2023-10-08T14:18:36;18.03;;;5.87;;
4698;SDS011;33708;49.466;11.176;2023-10-08T14:21:08;13.73;;;5.70;;
4698;SDS011;33708;49.466;11.176;2023-10-08T14:23:37;15.97;;;5.67;;
4698;SDS011;33708;49.466;11.176;2023-10-08T14:26:06;22.70;;;6.87;;
4698;SDS011;33708;49.466;11.176;2023-10-08T14:28:34;13.30;;;5.90;;
4698;SDS011;33708;49.466;11.176;2023-10-08T14:31:07;11.90;;;5.60;;
4698;SDS011;33708;49.466;11.176;2023-10-08T14:33:33;15.97;;;6.97;;
4698;SDS011;33708;49.466;11.176;2023-10-08T14:36:10;14.67;;;6.97;;
4698;SDS011;33708;49.466;11.176;2023-10-08T14:38:54;17.70;;;6.00;;
4698;SDS011;33708;49.466;11.176;2023-10-08T14:41:39;13.30;;;5.47;;
4698;SDS011;33708;49.466;11.176;2023-10-08T14:44:26;17.63;;;6.10;;
4698;SDS011;33708;49.466;11.176;2023-10-08T14:46:52;12.50;;;6.27;;
4698;SDS011;33708;49.466;11.176;2023-10-08T14:49:19;15.43;;;5.97;;
4698;SDS011;33708;49.466;11.176;2023-10-08T14:51:47;12.67;;;5.90;;
4698;SDS011;33708;49.466;11.176;2023-10-08T14:54:14;11.80;;;5.57;;
4698;SDS011;33708;49.466;11.176;2023-10-08T14:56:39;16.30;;;5.50;;
4698;SDS011;33708;49.466;11.176;2023-10-08T14:59:05;11.47;;;5.80;;
4698;SDS011;33708;49.466;11.176;2023-10-08T15:01:31;16.07;;;6.80;;
4698;SDS011;33708;49.466;11.176;2023-10-08T15:04:00;13.10;;;5.37;;
4698;SDS011;33708;49.466;11.176;2023-10-08T15:06:30;23.43;;;10.00;;
4698;SDS011;33708;49.466;11.176;2023-10-08T15:08:56;12.60;;;6.33;;
4698;SDS011;33708;49.466;11.176;2023-10-08T15:11:23;19.03;;;10.30;;